sensor_id;sensor_type;location;lat;lon;timestamp;P1;durP1;ratioP1;P2;durP2;ratioP2
22425;SDS011;11380;50.822;15.790;2023-03-01T00:01:55;43.47;;;38.87;;
22425;SDS011;11380;50.822;15.790;2023-03-01T00:07:07;43.40;;;39.43;;
22425;SDS011;11380;50.822;15.790;2023-03-01T00:12:14;47.60;;;42.93;;
22425;SDS011;11380;50.822;15.790;2023-03-01T00:17:22;42.93;;;39.20;;
22425;SDS011;11380;50.822;15.790;2023-03-01T00:22:35;46.30;;;41.30;;
22425;SDS011;11380;50.822;15.790;2023-03-01T00:27:44;49.43;;;42.00;;
22425;SDS011;11380;50.822;15.790;2023-03-01T00:32:53;42.37;;;38.33;;
22425;SDS011;11380;50.822;15.790;2023-03-01T00:43:08;39.37;;;35.53;;
22425;SDS011;11380;50.822;15.790;2023-03-01T00:48:15;37.80;;;34.90;;
22425;SDS011;11380;50.822;15.790;2023-03-01T00:58:29;37.78;;;34.80;;
22425;SDS011;11380;50.822;15.790;2023-03-01T01:03:36;39.53;;;36.20;;
22425;SDS011;11380;50.822;15.790;2023-03-01T01:08:45;39.80;;;36.20;;
22425;SDS011;11380;50.822;15.790;2023-03-01T01:13:53;39.83;;;36.33;;
22425;SDS011;11380;50.822;15.790;2023-03-01T01:19:02;36.57;;;33.47;;
22425;SDS011;11380;50.822;15.790;2023-03-01T01:24:10;35.80;;;33.27;;
22425;SDS011;11380;50.822;15.790;2023-03-01T01:29:17;39.13;;;35.83;;
22425;SDS011;11380;50.822;15.790;2023-03-01T01:34:25;36.57;;;33.73;;
22425;SDS011;11380;50.822;15.790;2023-03-01T01:39:34;33.67;;;31.47;;
22425;SDS011;11380;50.822;15.790;2023-03-01T01:44:42;35.20;;;32.17;;
22425;SDS011;11380;50.822;15.790;2023-03-01T01:49:53;33.00;;;30.77;;
22425;SDS011;11380;50.822;15.790;2023-03-01T01:55:05;37.70;;;34.40;;
22425;SDS011;11380;50.822;15.790;2023-03-01T02:00:28;38.73;;;35.53;;
22425;SDS011;11380;50.822;15.790;2023-03-01T02:11:09;37.00;;;33.93;;
22425;SDS011;11380;50.822;15.790;2023-03-01T02:16:19;36.23;;;33.73;;
22425;SDS011;11380;50.822;15.790;2023-03-01T02:21:50;35.70;;;32.95;;
22425;SDS011;11380;50.822;15.790;2023-03-01T02:27:11;38.23;;;35.10;;
22425;SDS011;11380;50.822;15.790;2023-03-01T02:32:19;37.17;;;34.50;;
22425;SDS011;11380;50.822;15.790;2023-03-01T02:37:28;35.33;;;32.95;;
22425;SDS011;11380;50.822;15.790;2023-03-01T02:42:36;42.87;;;38.50;;
22425;SDS011;11380;50.822;15.790;2023-03-01T02:47:48;40.87;;;36.77;;
22425;SDS011;11380;50.822;15.790;2023-03-01T02:53:01;37.87;;;34.93;;
22425;SDS011;11380;50.822;15.790;2023-03-01T02:58:24;31.62;;;29.85;;
22425;SDS011;11380;50.822;15.790;2023-03-01T03:03:32;39.77;;;35.27;;
22425;SDS011;11380;50.822;15.790;2023-03-01T03:08:39;37.57;;;34.37;;
22425;SDS011;11380;50.822;15.790;2023-03-01T03:13:49;40.83;;;36.80;;
22425;SDS011;11380;50.822;15.790;2023-03-01T03:18:56;44.37;;;39.53;;
22425;SDS011;11380;50.822;15.790;2023-03-01T03:24:05;46.77;;;41.97;;
22425;SDS011;11380;50.822;15.790;2023-03-01T03:29:12;39.47;;;35.73;;
22425;SDS011;11380;50.822;15.790;2023-03-01T03:34:20;37.00;;;33.78;;
22425;SDS011;11380;50.822;15.790;2023-03-01T03:39:28;36.60;;;33.57;;
22425;SDS011;11380;50.822;15.790;2023-03-01T03:44:38;33.50;;;31.13;;
22425;SDS011;11380;50.822;15.790;2023-03-01T03:49:45;35.97;;;32.93;;
22425;SDS011;11380;50.822;15.790;2023-03-01T03:54:53;35.53;;;32.67;;
22425;SDS011;11380;50.822;15.790;2023-03-01T03:59:59;33.23;;;30.97;;
22425;SDS011;11380;50.822;15.790;2023-03-01T04:05:10;37.83;;;34.60;;
22425;SDS011;11380;50.822;15.790;2023-03-01T04:10:20;34.63;;;32.00;;
22425;SDS011;11380;50.822;15.790;2023-03-01T04:15:28;37.13;;;34.05;;
22425;SDS011;11380;50.822;15.790;2023-03-01T04:20:37;35.83;;;33.17;;
22425;SDS011;11380;50.822;15.790;2023-03-01T04:25:49;39.43;;;35.70;;
22425;SDS011;11380;50.822;15.790;2023-03-01T04:31:01;37.73;;;34.43;;
22425;SDS011;11380;50.822;15.790;2023-03-01T04:36:21;35.68;;;32.60;;
22425;SDS011;11380;50.822;15.790;2023-03-01T04:41:32;41.80;;;32.40;;
22425;SDS011;11380;50.822;15.790;2023-03-01T04:46:40;35.10;;;32.23;;
22425;SDS011;11380;50.822;15.790;2023-03-01T04:51:49;34.43;;;31.67;;
22425;SDS011;11380;50.822;15.790;2023-03-01T04:56:58;29.40;;;27.67;;
22425;SDS011;11380;50.822;15.790;2023-03-01T05:02:06;36.10;;;32.80;;
22425;SDS011;11380;50.822;15.790;2023-03-01T05:07:14;32.05;;;29.48;;
22425;SDS011;11380;50.822;15.790;2023-03-01T05:12:23;36.38;;;33.23;;
22425;SDS011;11380;50.822;15.790;2023-03-01T05:17:31;34.37;;;31.67;;
22425;SDS011;11380;50.822;15.790;2023-03-01T05:22:39;47.23;;;36.67;;
22425;SDS011;11380;50.822;15.790;2023-03-01T05:27:47;39.17;;;35.07;;
22425;SDS011;11380;50.822;15.790;2023-03-01T05:32:56;34.40;;;32.08;;
22425;SDS011;11380;50.822;15.790;2023-03-01T05:38:04;35.17;;;31.80;;
22425;SDS011;11380;50.822;15.790;2023-03-01T05:43:13;32.73;;;29.93;;
22425;SDS011;11380;50.822;15.790;2023-03-01T05:48:23;36.75;;;33.33;;
22425;SDS011;11380;50.822;15.790;2023-03-01T05:53:31;35.07;;;32.07;;
22425;SDS011;11380;50.822;15.790;2023-03-01T05:58:38;30.70;;;28.83;;
22425;SDS011;11380;50.822;15.790;2023-03-01T06:03:47;32.00;;;29.27;;
22425;SDS011;11380;50.822;15.790;2023-03-01T06:08:54;32.77;;;30.13;;
22425;SDS011;11380;50.822;15.790;2023-03-01T06:14:05;33.27;;;31.00;;
22425;SDS011;11380;50.822;15.790;2023-03-01T06:19:14;32.07;;;29.97;;
22425;SDS011;11380;50.822;15.790;2023-03-01T06:24:22;33.43;;;31.03;;
22425;SDS011;11380;50.822;15.790;2023-03-01T06:29:31;35.40;;;32.58;;
22425;SDS011;11380;50.822;15.790;2023-03-01T06:34:39;34.27;;;31.67;;
22425;SDS011;11380;50.822;15.790;2023-03-01T06:39:46;34.53;;;31.73;;
22425;SDS011;11380;50.822;15.790;2023-03-01T06:44:55;34.57;;;31.60;;
22425;SDS011;11380;50.822;15.790;2023-03-01T06:50:03;36.00;;;33.00;;
22425;SDS011;11380;50.822;15.790;2023-03-01T06:55:13;35.83;;;33.00;;
22425;SDS011;11380;50.822;15.790;2023-03-01T07:00:22;38.02;;;35.13;;
22425;SDS011;11380;50.822;15.790;2023-03-01T07:05:32;41.88;;;38.40;;
22425;SDS011;11380;50.822;15.790;2023-03-01T07:10:42;43.30;;;39.30;;
22425;SDS011;11380;50.822;15.790;2023-03-01T07:15:50;45.03;;;40.93;;
22425;SDS011;11380;50.822;15.790;2023-03-01T07:21:03;49.23;;;44.15;;
22425;SDS011;11380;50.822;15.790;2023-03-01T07:26:16;49.95;;;43.90;;
22425;SDS011;11380;50.822;15.790;2023-03-01T07:31:24;62.47;;;49.57;;
22425;SDS011;11380;50.822;15.790;2023-03-01T07:36:32;64.62;;;49.98;;
22425;SDS011;11380;50.822;15.790;2023-03-01T07:41:40;76.47;;;54.07;;
22425;SDS011;11380;50.822;15.790;2023-03-01T07:46:47;70.60;;;52.07;;
22425;SDS011;11380;50.822;15.790;2023-03-01T07:51:56;75.17;;;54.30;;
22425;SDS011;11380;50.822;15.790;2023-03-01T07:57:06;73.03;;;57.43;;
22425;SDS011;11380;50.822;15.790;2023-03-01T08:02:14;58.80;;;52.83;;
22425;SDS011;11380;50.822;15.790;2023-03-01T08:07:21;61.10;;;54.83;;
22425;SDS011;11380;50.822;15.790;2023-03-01T08:12:31;84.60;;;61.28;;
22425;SDS011;11380;50.822;15.790;2023-03-01T08:17:39;68.60;;;56.83;;
22425;SDS011;11380;50.822;15.790;2023-03-01T08:22:46;67.73;;;57.27;;
22425;SDS011;11380;50.822;15.790;2023-03-01T08:27:54;77.60;;;61.70;;
22425;SDS011;11380;50.822;15.790;2023-03-01T08:33:02;70.07;;;58.37;;
22425;SDS011;11380;50.822;15.790;2023-03-01T08:38:11;69.13;;;60.40;;
22425;SDS011;11380;50.822;15.790;2023-03-01T08:43:18;74.07;;;61.67;;
22425;SDS011;11380;50.822;15.790;2023-03-01T08:48:30;68.70;;;60.17;;
22425;SDS011;11380;50.822;15.790;2023-03-01T08:53:37;68.03;;;60.60;;
22425;SDS011;11380;50.822;15.790;2023-03-01T08:58:45;68.03;;;58.93;;
22425;SDS011;11380;50.822;15.790;2023-03-01T09:03:55;69.03;;;60.07;;
22425;SDS011;11380;50.822;15.790;2023-03-01T09:09:05;72.70;;;59.93;;
22425;SDS011;11380;50.822;15.790;2023-03-01T09:14:15;61.90;;;55.03;;
22425;SDS011;11380;50.822;15.790;2023-03-01T09:19:23;58.52;;;52.67;;
22425;SDS011;11380;50.822;15.790;2023-03-01T09:24:32;58.95;;;53.17;;
22425;SDS011;11380;50.822;15.790;2023-03-01T09:29:39;56.13;;;50.97;;
22425;SDS011;11380;50.822;15.790;2023-03-01T09:34:46;56.80;;;51.37;;
22425;SDS011;11380;50.822;15.790;2023-03-01T09:40:11;59.17;;;52.83;;
22425;SDS011;11380;50.822;15.790;2023-03-01T09:45:28;58.05;;;52.45;;
22425;SDS011;11380;50.822;15.790;2023-03-01T09:50:40;57.97;;;52.40;;
22425;SDS011;11380;50.822;15.790;2023-03-01T09:55:59;58.87;;;52.87;;
22425;SDS011;11380;50.822;15.790;2023-03-01T10:06:41;59.25;;;53.23;;
22425;SDS011;11380;50.822;15.790;2023-03-01T10:11:54;62.90;;;56.10;;
22425;SDS011;11380;50.822;15.790;2023-03-01T10:22:26;65.30;;;58.38;;
22425;SDS011;11380;50.822;15.790;2023-03-01T10:27:45;70.83;;;58.50;;
22425;SDS011;11380;50.822;15.790;2023-03-01T10:33:00;66.30;;;58.80;;
22425;SDS011;11380;50.822;15.790;2023-03-01T10:38:09;70.03;;;58.60;;
22425;SDS011;11380;50.822;15.790;2023-03-01T10:43:21;66.33;;;58.43;;
22425;SDS011;11380;50.822;15.790;2023-03-01T10:48:34;66.37;;;59.07;;
22425;SDS011;11380;50.822;15.790;2023-03-01T10:53:44;67.60;;;57.43;;
22425;SDS011;11380;50.822;15.790;2023-03-01T10:59:00;67.33;;;57.60;;
22425;SDS011;11380;50.822;15.790;2023-03-01T11:04:12;61.08;;;54.83;;
22425;SDS011;11380;50.822;15.790;2023-03-01T11:09:21;62.17;;;55.60;;
22425;SDS011;11380;50.822;15.790;2023-03-01T11:14:35;61.47;;;55.10;;
22425;SDS011;11380;50.822;15.790;2023-03-01T11:19:59;62.93;;;55.97;;
22425;SDS011;11380;50.822;15.790;2023-03-01T11:25:10;61.70;;;55.07;;
22425;SDS011;11380;50.822;15.790;2023-03-01T11:30:31;61.63;;;55.17;;
22425;SDS011;11380;50.822;15.790;2023-03-01T11:35:53;61.10;;;54.47;;
22425;SDS011;11380;50.822;15.790;2023-03-01T11:41:26;62.07;;;54.97;;
22425;SDS011;11380;50.822;15.790;2023-03-01T11:46:43;59.93;;;53.77;;
22425;SDS011;11380;50.822;15.790;2023-03-01T11:57:36;60.40;;;54.25;;
22425;SDS011;11380;50.822;15.790;2023-03-01T12:08:19;60.47;;;54.30;;
22425;SDS011;11380;50.822;15.790;2023-03-01T12:13:47;63.73;;;55.27;;
22425;SDS011;11380;50.822;15.790;2023-03-01T12:30:28;62.08;;;55.40;;
22425;SDS011;11380;50.822;15.790;2023-03-01T12:41:31;61.13;;;54.70;;
22425;SDS011;11380;50.822;15.790;2023-03-01T12:47:19;60.30;;;54.23;;
22425;SDS011;11380;50.822;15.790;2023-03-01T12:52:53;62.13;;;55.60;;
22425;SDS011;11380;50.822;15.790;2023-03-01T12:58:05;61.63;;;55.03;;
22425;SDS011;11380;50.822;15.790;2023-03-01T13:08:42;60.77;;;54.27;;
22425;SDS011;11380;50.822;15.790;2023-03-01T13:19:31;62.10;;;55.60;;
22425;SDS011;11380;50.822;15.790;2023-03-01T13:24:40;60.67;;;54.30;;
22425;SDS011;11380;50.822;15.790;2023-03-01T13:29:49;64.90;;;57.70;;
22425;SDS011;11380;50.822;15.790;2023-03-01T13:35:40;60.87;;;54.67;;
22425;SDS011;11380;50.822;15.790;2023-03-01T13:45:38;59.90;;;53.90;;
22425;SDS011;11380;50.822;15.790;2023-03-01T13:51:23;59.37;;;53.47;;
22425;SDS011;11380;50.822;15.790;2023-03-01T13:56:24;59.00;;;52.93;;
22425;SDS011;11380;50.822;15.790;2023-03-01T14:01:35;59.97;;;53.83;;
22425;SDS011;11380;50.822;15.790;2023-03-01T14:06:45;59.53;;;53.57;;
22425;SDS011;11380;50.822;15.790;2023-03-01T14:11:58;55.67;;;50.08;;
22425;SDS011;11380;50.822;15.790;2023-03-01T14:17:22;53.10;;;48.40;;
22425;SDS011;11380;50.822;15.790;2023-03-01T14:22:52;52.63;;;47.90;;
22425;SDS011;11380;50.822;15.790;2023-03-01T14:28:13;52.20;;;47.50;;
22425;SDS011;11380;50.822;15.790;2023-03-01T14:33:32;54.07;;;49.23;;
22425;SDS011;11380;50.822;15.790;2023-03-01T14:38:42;56.77;;;51.53;;
22425;SDS011;11380;50.822;15.790;2023-03-01T14:49:14;56.30;;;50.98;;
22425;SDS011;11380;50.822;15.790;2023-03-01T14:54:29;56.70;;;51.27;;
22425;SDS011;11380;50.822;15.790;2023-03-01T14:59:40;56.60;;;51.20;;
22425;SDS011;11380;50.822;15.790;2023-03-01T15:04:49;57.20;;;51.87;;
22425;SDS011;11380;50.822;15.790;2023-03-01T15:10:06;57.65;;;51.83;;
22425;SDS011;11380;50.822;15.790;2023-03-01T15:15:20;54.80;;;49.70;;
22425;SDS011;11380;50.822;15.790;2023-03-01T15:20:40;57.47;;;51.80;;
22425;SDS011;11380;50.822;15.790;2023-03-01T15:25:49;57.00;;;51.60;;
22425;SDS011;11380;50.822;15.790;2023-03-01T15:31:05;58.23;;;52.50;;
22425;SDS011;11380;50.822;15.790;2023-03-01T15:41:48;57.30;;;51.87;;
22425;SDS011;11380;50.822;15.790;2023-03-01T15:46:55;57.37;;;51.83;;
22425;SDS011;11380;50.822;15.790;2023-03-01T15:52:05;55.43;;;49.93;;
22425;SDS011;11380;50.822;15.790;2023-03-01T15:57:25;56.23;;;50.95;;
22425;SDS011;11380;50.822;15.790;2023-03-01T16:02:32;56.90;;;51.03;;
22425;SDS011;11380;50.822;15.790;2023-03-01T16:12:47;57.43;;;51.67;;
22425;SDS011;11380;50.822;15.790;2023-03-01T16:17:56;58.10;;;52.30;;
22425;SDS011;11380;50.822;15.790;2023-03-01T16:23:05;57.20;;;51.50;;
22425;SDS011;11380;50.822;15.790;2023-03-01T16:28:15;56.33;;;50.63;;
22425;SDS011;11380;50.822;15.790;2023-03-01T16:33:23;55.38;;;50.10;;
22425;SDS011;11380;50.822;15.790;2023-03-01T16:38:31;55.83;;;50.47;;
22425;SDS011;11380;50.822;15.790;2023-03-01T16:43:39;55.60;;;50.50;;
22425;SDS011;11380;50.822;15.790;2023-03-01T16:48:47;61.17;;;54.80;;
22425;SDS011;11380;50.822;15.790;2023-03-01T16:53:55;56.90;;;51.40;;
22425;SDS011;11380;50.822;15.790;2023-03-01T16:59:02;73.47;;;58.63;;
22425;SDS011;11380;50.822;15.790;2023-03-01T17:04:11;75.00;;;60.43;;
22425;SDS011;11380;50.822;15.790;2023-03-01T17:09:18;83.42;;;63.38;;
22425;SDS011;11380;50.822;15.790;2023-03-01T17:14:27;64.00;;;55.00;;
22425;SDS011;11380;50.822;15.790;2023-03-01T17:19:34;61.03;;;54.30;;
22425;SDS011;11380;50.822;15.790;2023-03-01T17:24:47;59.57;;;53.23;;
22425;SDS011;11380;50.822;15.790;2023-03-01T17:29:55;60.73;;;54.13;;
22425;SDS011;11380;50.822;15.790;2023-03-01T17:35:03;60.93;;;54.17;;
22425;SDS011;11380;50.822;15.790;2023-03-01T17:40:11;64.17;;;57.03;;
22425;SDS011;11380;50.822;15.790;2023-03-01T17:45:19;63.08;;;56.40;;
22425;SDS011;11380;50.822;15.790;2023-03-01T17:50:27;63.63;;;56.15;;
22425;SDS011;11380;50.822;15.790;2023-03-01T17:55:35;64.40;;;56.87;;
22425;SDS011;11380;50.822;15.790;2023-03-01T18:00:44;63.07;;;55.50;;
22425;SDS011;11380;50.822;15.790;2023-03-01T18:05:52;68.97;;;54.83;;
22425;SDS011;11380;50.822;15.790;2023-03-01T18:11:05;60.47;;;54.00;;
22425;SDS011;11380;50.822;15.790;2023-03-01T18:16:15;69.45;;;58.50;;
22425;SDS011;11380;50.822;15.790;2023-03-01T18:21:28;130.87;;;84.27;;
22425;SDS011;11380;50.822;15.790;2023-03-01T18:26:37;101.23;;;74.07;;
22425;SDS011;11380;50.822;15.790;2023-03-01T18:31:48;95.17;;;65.27;;
22425;SDS011;11380;50.822;15.790;2023-03-01T18:36:58;82.57;;;61.77;;
22425;SDS011;11380;50.822;15.790;2023-03-01T18:42:10;71.07;;;54.97;;
22425;SDS011;11380;50.822;15.790;2023-03-01T18:47:21;70.65;;;54.60;;
22425;SDS011;11380;50.822;15.790;2023-03-01T18:52:33;67.63;;;56.67;;
22425;SDS011;11380;50.822;15.790;2023-03-01T18:57:43;113.87;;;76.03;;
22425;SDS011;11380;50.822;15.790;2023-03-01T19:03:08;72.80;;;55.30;;
22425;SDS011;11380;50.822;15.790;2023-03-01T19:08:17;59.47;;;53.07;;
22425;SDS011;11380;50.822;15.790;2023-03-01T19:13:27;60.93;;;53.93;;
22425;SDS011;11380;50.822;15.790;2023-03-01T19:18:36;55.67;;;49.93;;
22425;SDS011;11380;50.822;15.790;2023-03-01T19:23:46;56.50;;;50.63;;
22425;SDS011;11380;50.822;15.790;2023-03-01T19:28:56;58.03;;;52.07;;
22425;SDS011;11380;50.822;15.790;2023-03-01T19:34:04;57.17;;;51.33;;
22425;SDS011;11380;50.822;15.790;2023-03-01T19:39:17;56.37;;;50.98;;
22425;SDS011;11380;50.822;15.790;2023-03-01T19:44:27;53.17;;;47.75;;
22425;SDS011;11380;50.822;15.790;2023-03-01T19:49:38;112.77;;;66.70;;
22425;SDS011;11380;50.822;15.790;2023-03-01T19:54:49;78.23;;;58.77;;
22425;SDS011;11380;50.822;15.790;2023-03-01T19:59:59;63.90;;;52.63;;
22425;SDS011;11380;50.822;15.790;2023-03-01T20:05:08;55.15;;;49.75;;
22425;SDS011;11380;50.822;15.790;2023-03-01T20:10:19;55.67;;;49.63;;
22425;SDS011;11380;50.822;15.790;2023-03-01T20:15:42;56.57;;;50.43;;
22425;SDS011;11380;50.822;15.790;2023-03-01T20:20:54;56.33;;;50.67;;
22425;SDS011;11380;50.822;15.790;2023-03-01T20:26:08;62.93;;;53.68;;
22425;SDS011;11380;50.822;15.790;2023-03-01T20:31:20;60.97;;;51.10;;
22425;SDS011;11380;50.822;15.790;2023-03-01T20:36:31;55.23;;;49.87;;
22425;SDS011;11380;50.822;15.790;2023-03-01T20:41:45;61.40;;;52.70;;
22425;SDS011;11380;50.822;15.790;2023-03-01T20:46:55;69.97;;;53.43;;
22425;SDS011;11380;50.822;15.790;2023-03-01T20:52:04;54.80;;;49.00;;
22425;SDS011;11380;50.822;15.790;2023-03-01T20:57:13;55.23;;;49.87;;
22425;SDS011;11380;50.822;15.790;2023-03-01T21:02:24;53.80;;;48.20;;
22425;SDS011;11380;50.822;15.790;2023-03-01T21:07:35;51.45;;;46.50;;
22425;SDS011;11380;50.822;15.790;2023-03-01T21:12:42;53.90;;;48.57;;
22425;SDS011;11380;50.822;15.790;2023-03-01T21:18:09;52.67;;;47.07;;
22425;SDS011;11380;50.822;15.790;2023-03-01T21:23:17;54.77;;;49.30;;
22425;SDS011;11380;50.822;15.790;2023-03-01T21:28:27;55.48;;;49.75;;
22425;SDS011;11380;50.822;15.790;2023-03-01T21:33:39;55.70;;;47.80;;
22425;SDS011;11380;50.822;15.790;2023-03-01T21:38:52;51.58;;;46.42;;
22425;SDS011;11380;50.822;15.790;2023-03-01T21:44:01;51.33;;;46.13;;
22425;SDS011;11380;50.822;15.790;2023-03-01T21:49:12;52.33;;;45.87;;
22425;SDS011;11380;50.822;15.790;2023-03-01T21:54:19;55.30;;;47.80;;
22425;SDS011;11380;50.822;15.790;2023-03-01T21:59:27;52.65;;;47.25;;
22425;SDS011;11380;50.822;15.790;2023-03-01T22:04:36;52.23;;;46.77;;
22425;SDS011;11380;50.822;15.790;2023-03-01T22:14:50;51.63;;;46.50;;
22425;SDS011;11380;50.822;15.790;2023-03-01T22:19:58;52.60;;;46.77;;
22425;SDS011;11380;50.822;15.790;2023-03-01T22:25:05;54.63;;;47.97;;
22425;SDS011;11380;50.822;15.790;2023-03-01T22:30:14;49.45;;;44.80;;
22425;SDS011;11380;50.822;15.790;2023-03-01T22:35:23;57.25;;;46.50;;
22425;SDS011;11380;50.822;15.790;2023-03-01T22:40:32;51.07;;;46.03;;
22425;SDS011;11380;50.822;15.790;2023-03-01T22:45:42;52.33;;;46.70;;
22425;SDS011;11380;50.822;15.790;2023-03-01T22:50:50;51.07;;;45.43;;
22425;SDS011;11380;50.822;15.790;2023-03-01T22:56:08;46.07;;;42.07;;
22425;SDS011;11380;50.822;15.790;2023-03-01T23:01:23;45.12;;;41.02;;
22425;SDS011;11380;50.822;15.790;2023-03-01T23:06:30;48.17;;;43.40;;
22425;SDS011;11380;50.822;15.790;2023-03-01T23:11:39;48.97;;;44.00;;
22425;SDS011;11380;50.822;15.790;2023-03-01T23:16:47;49.53;;;44.50;;
22425;SDS011;11380;50.822;15.790;2023-03-01T23:21:55;47.10;;;42.73;;
22425;SDS011;11380;50.822;15.790;2023-03-01T23:27:05;46.53;;;41.73;;
22425;SDS011;11380;50.822;15.790;2023-03-01T23:32:13;49.75;;;42.05;;
22425;SDS011;11380;50.822;15.790;2023-03-01T23:37:21;52.40;;;42.65;;
22425;SDS011;11380;50.822;15.790;2023-03-01T23:42:32;47.07;;;42.17;;
22425;SDS011;11380;50.822;15.790;2023-03-01T23:47:39;42.53;;;38.83;;
22425;SDS011;11380;50.822;15.790;2023-03-01T23:52:50;50.63;;;45.20;;
22425;SDS011;11380;50.822;15.790;2023-03-01T23:57:57;48.07;;;43.13;;
